sensor_id;sensor_type;location;lat;lon;timestamp;pressure;altitude;pressure_sealevel;temperature;humidity
64460;BME280;50828;53.756;21.140;2023-04-02T00:02:34;99020.60;;;5.08;70.08
64460;BME280;50828;53.756;21.140;2023-04-02T00:07:52;99019.77;;;5.03;70.15
64460;BME280;50828;53.756;21.140;2023-04-02T00:13:05;99029.63;;;5.00;70.04
64460;BME280;50828;53.756;21.140;2023-04-02T00:18:15;99029.04;;;4.91;70.06
64460;BME280;50828;53.756;21.140;2023-04-02T00:23:23;99035.20;;;4.89;70.01
64460;BME280;50828;53.756;21.140;2023-04-02T00:28:30;99039.69;;;4.87;70.06
64460;BME280;50828;53.756;21.140;2023-04-02T00:33:38;99037.88;;;4.83;70.07
64460;BME280;50828;53.756;21.140;2023-04-02T00:38:50;99040.90;;;4.81;69.99
64460;BME280;50828;53.756;21.140;2023-04-02T00:43:58;99055.27;;;4.79;70.14
64460;BME280;50828;53.756;21.140;2023-04-02T00:49:09;99063.14;;;4.79;70.24
64460;BME280;50828;53.756;21.140;2023-04-02T00:54:24;99067.49;;;4.74;70.05
64460;BME280;50828;53.756;21.140;2023-04-02T00:59:42;99078.30;;;4.74;69.97
64460;BME280;50828;53.756;21.140;2023-04-02T01:04:56;99087.69;;;4.70;70.09
64460;BME280;50828;53.756;21.140;2023-04-02T01:10:15;99090.77;;;4.66;69.96
64460;BME280;50828;53.756;21.140;2023-04-02T01:15:32;99095.02;;;4.64;70.02
64460;BME280;50828;53.756;21.140;2023-04-02T01:21:01;99095.66;;;4.61;70.01
64460;BME280;50828;53.756;21.140;2023-04-02T01:26:16;99095.81;;;4.55;69.91
64460;BME280;50828;53.756;21.140;2023-04-02T01:31:30;99106.63;;;4.55;69.96
64460;BME280;50828;53.756;21.140;2023-04-02T01:36:45;99111.95;;;4.52;69.85
64460;BME280;50828;53.756;21.140;2023-04-02T01:42:00;99115.08;;;4.47;69.91
64460;BME280;50828;53.756;21.140;2023-04-02T01:47:14;99124.39;;;4.45;69.95
64460;BME280;50828;53.756;21.140;2023-04-02T01:52:34;99133.52;;;4.43;70.01
64460;BME280;50828;53.756;21.140;2023-04-02T01:57:44;99135.86;;;4.40;70.06
64460;BME280;50828;53.756;21.140;2023-04-02T02:02:53;99145.34;;;4.38;70.12
64460;BME280;50828;53.756;21.140;2023-04-02T02:08:00;99148.89;;;4.36;70.00
64460;BME280;50828;53.756;21.140;2023-04-02T02:13:14;99152.31;;;4.32;69.94
64460;BME280;50828;53.756;21.140;2023-04-02T02:18:22;99162.77;;;4.33;70.00
64460;BME280;50828;53.756;21.140;2023-04-02T02:23:30;99164.90;;;4.31;70.08
64460;BME280;50828;53.756;21.140;2023-04-02T02:28:40;99169.65;;;4.29;70.09
64460;BME280;50828;53.756;21.140;2023-04-02T02:33:51;99177.19;;;4.28;70.16
64460;BME280;50828;53.756;21.140;2023-04-02T02:39:06;99171.36;;;4.25;70.04
64460;BME280;50828;53.756;21.140;2023-04-02T02:44:24;99181.83;;;4.24;70.05
64460;BME280;50828;53.756;21.140;2023-04-02T02:49:35;99184.83;;;4.23;69.97
64460;BME280;50828;53.756;21.140;2023-04-02T02:54:45;99188.71;;;4.21;70.03
64460;BME280;50828;53.756;21.140;2023-04-02T02:59:55;99197.27;;;4.20;69.98
64460;BME280;50828;53.756;21.140;2023-04-02T03:05:06;99203.42;;;4.19;70.06
64460;BME280;50828;53.756;21.140;2023-04-02T03:10:18;99213.03;;;4.18;70.17
64460;BME280;50828;53.756;21.140;2023-04-02T03:15:34;99217.09;;;4.16;70.15
64460;BME280;50828;53.756;21.140;2023-04-02T03:20:48;99220.95;;;4.15;70.16
64460;BME280;50828;53.756;21.140;2023-04-02T03:26:03;99225.16;;;4.14;70.12
64460;BME280;50828;53.756;21.140;2023-04-02T03:31:18;99228.33;;;4.13;70.20
64460;BME280;50828;53.756;21.140;2023-04-02T03:36:33;99231.85;;;4.12;70.13
64460;BME280;50828;53.756;21.140;2023-04-02T03:41:46;99235.26;;;4.08;70.14
64460;BME280;50828;53.756;21.140;2023-04-02T03:47:00;99246.61;;;4.08;70.04
64460;BME280;50828;53.756;21.140;2023-04-02T03:52:13;99249.97;;;4.06;70.07
64460;BME280;50828;53.756;21.140;2023-04-02T03:57:25;99267.10;;;4.04;70.16
64460;BME280;50828;53.756;21.140;2023-04-02T04:02:41;99269.93;;;4.02;70.13
64460;BME280;50828;53.756;21.140;2023-04-02T04:07:52;99273.52;;;3.99;70.04
64460;BME280;50828;53.756;21.140;2023-04-02T04:13:08;99280.88;;;3.97;70.09
64460;BME280;50828;53.756;21.140;2023-04-02T04:18:25;99290.99;;;3.96;70.11
64460;BME280;50828;53.756;21.140;2023-04-02T04:23:48;99298.67;;;3.95;69.96
64460;BME280;50828;53.756;21.140;2023-04-02T04:29:01;99307.59;;;3.95;70.07
64460;BME280;50828;53.756;21.140;2023-04-02T04:34:18;99320.53;;;3.93;70.10
64460;BME280;50828;53.756;21.140;2023-04-02T04:39:39;99334.46;;;3.92;70.09
64460;BME280;50828;53.756;21.140;2023-04-02T04:44:52;99341.98;;;3.92;70.01
64460;BME280;50828;53.756;21.140;2023-04-02T04:50:06;99345.22;;;3.88;70.06
64460;BME280;50828;53.756;21.140;2023-04-02T04:55:28;99355.84;;;3.88;70.02
64460;BME280;50828;53.756;21.140;2023-04-02T05:00:42;99370.52;;;3.86;69.99
64460;BME280;50828;53.756;21.140;2023-04-02T05:05:51;99375.44;;;3.84;70.08
64460;BME280;50828;53.756;21.140;2023-04-02T05:11:02;99377.09;;;3.80;70.11
64460;BME280;50828;53.756;21.140;2023-04-02T05:16:16;99380.48;;;3.78;70.16
64460;BME280;50828;53.756;21.140;2023-04-02T05:21:34;99391.08;;;3.78;69.98
64460;BME280;50828;53.756;21.140;2023-04-02T05:26:46;99397.05;;;3.76;70.06
64460;BME280;50828;53.756;21.140;2023-04-02T05:31:59;99398.65;;;3.75;70.18
64460;BME280;50828;53.756;21.140;2023-04-02T05:37:14;99400.42;;;3.74;70.14
64460;BME280;50828;53.756;21.140;2023-04-02T05:42:26;99403.74;;;3.73;70.12
64460;BME280;50828;53.756;21.140;2023-04-02T05:47:39;99407.46;;;3.71;70.06
64460;BME280;50828;53.756;21.140;2023-04-02T05:52:54;99415.33;;;3.69;70.14
64460;BME280;50828;53.756;21.140;2023-04-02T05:58:06;99422.13;;;3.69;70.21
64460;BME280;50828;53.756;21.140;2023-04-02T06:03:46;99424.96;;;3.67;70.15
64460;BME280;50828;53.756;21.140;2023-04-02T06:08:59;99439.05;;;3.67;70.27
64460;BME280;50828;53.756;21.140;2023-04-02T06:14:11;99445.33;;;3.67;70.36
64460;BME280;50828;53.756;21.140;2023-04-02T06:19:24;99450.39;;;3.66;70.24
64460;BME280;50828;53.756;21.140;2023-04-02T06:24:35;99460.46;;;3.67;70.19
64460;BME280;50828;53.756;21.140;2023-04-02T06:29:45;99462.23;;;3.67;70.35
64460;BME280;50828;53.756;21.140;2023-04-02T06:34:57;99469.67;;;3.69;70.25
64460;BME280;50828;53.756;21.140;2023-04-02T06:40:16;99477.17;;;3.68;70.18
64460;BME280;50828;53.756;21.140;2023-04-02T06:45:32;99487.58;;;3.70;70.18
64460;BME280;50828;53.756;21.140;2023-04-02T06:50:52;99494.40;;;3.69;70.18
64460;BME280;50828;53.756;21.140;2023-04-02T06:56:04;99497.70;;;3.69;70.27
64460;BME280;50828;53.756;21.140;2023-04-02T07:01:18;99508.84;;;3.69;70.17
64460;BME280;50828;53.756;21.140;2023-04-02T07:06:29;99511.34;;;3.67;70.14
64460;BME280;50828;53.756;21.140;2023-04-02T07:11:38;99527.48;;;3.70;70.21
64460;BME280;50828;53.756;21.140;2023-04-02T07:16:45;99528.50;;;3.71;70.29
64460;BME280;50828;53.756;21.140;2023-04-02T07:21:53;99532.86;;;3.71;70.29
64460;BME280;50828;53.756;21.140;2023-04-02T07:27:04;99538.42;;;3.70;70.28
64460;BME280;50828;53.756;21.140;2023-04-02T07:32:12;99549.54;;;3.72;70.25
64460;BME280;50828;53.756;21.140;2023-04-02T07:37:20;99554.41;;;3.72;70.12
64460;BME280;50828;53.756;21.140;2023-04-02T07:42:27;99558.69;;;3.76;70.33
64460;BME280;50828;53.756;21.140;2023-04-02T07:47:35;99556.55;;;3.78;70.27
64460;BME280;50828;53.756;21.140;2023-04-02T07:52:42;99563.28;;;3.81;70.09
64460;BME280;50828;53.756;21.140;2023-04-02T07:57:52;99569.52;;;3.82;70.18
64460;BME280;50828;53.756;21.140;2023-04-02T08:02:59;99571.98;;;3.81;70.06
64460;BME280;50828;53.756;21.140;2023-04-02T08:08:07;99581.69;;;3.84;70.02
64460;BME280;50828;53.756;21.140;2023-04-02T08:13:15;99589.65;;;3.85;70.07
64460;BME280;50828;53.756;21.140;2023-04-02T08:18:24;99595.92;;;3.86;70.10
64460;BME280;50828;53.756;21.140;2023-04-02T08:23:31;99602.17;;;3.88;70.02
64460;BME280;50828;53.756;21.140;2023-04-02T08:28:39;99608.55;;;3.90;69.85
64460;BME280;50828;53.756;21.140;2023-04-02T08:33:47;99618.28;;;3.91;69.88
64460;BME280;50828;53.756;21.140;2023-04-02T08:38:57;99622.80;;;3.92;70.04
64460;BME280;50828;53.756;21.140;2023-04-02T08:44:17;99632.33;;;3.95;69.92
64460;BME280;50828;53.756;21.140;2023-04-02T08:49:31;99639.25;;;3.98;69.98
64460;BME280;50828;53.756;21.140;2023-04-02T08:54:42;99648.80;;;3.98;69.88
64460;BME280;50828;53.756;21.140;2023-04-02T08:59:55;99661.27;;;4.03;69.95
64460;BME280;50828;53.756;21.140;2023-04-02T09:05:14;99669.52;;;4.08;69.89
64460;BME280;50828;53.756;21.140;2023-04-02T09:10:30;99674.33;;;4.11;69.98
64460;BME280;50828;53.756;21.140;2023-04-02T09:15:39;99682.27;;;4.15;69.75
64460;BME280;50828;53.756;21.140;2023-04-02T09:20:46;99687.96;;;4.18;69.94
64460;BME280;50828;53.756;21.140;2023-04-02T09:25:55;99701.32;;;4.21;69.76
64460;BME280;50828;53.756;21.140;2023-04-02T09:31:17;99705.79;;;4.25;69.66
64460;BME280;50828;53.756;21.140;2023-04-02T09:36:34;99712.73;;;4.26;69.61
64460;BME280;50828;53.756;21.140;2023-04-02T09:41:41;99713.73;;;4.28;69.52
64460;BME280;50828;53.756;21.140;2023-04-02T09:47:01;99718.93;;;4.29;69.44
64460;BME280;50828;53.756;21.140;2023-04-02T09:52:18;99733.49;;;4.33;69.47
64460;BME280;50828;53.756;21.140;2023-04-02T09:57:26;99737.80;;;4.36;69.56
64460;BME280;50828;53.756;21.140;2023-04-02T10:02:34;99743.61;;;4.42;69.49
64460;BME280;50828;53.756;21.140;2023-04-02T10:07:44;99748.73;;;4.47;69.46
64460;BME280;50828;53.756;21.140;2023-04-02T10:12:56;99756.96;;;4.54;69.35
64460;BME280;50828;53.756;21.140;2023-04-02T10:18:13;99771.46;;;4.61;69.08
64460;BME280;50828;53.756;21.140;2023-04-02T10:23:25;99774.82;;;4.67;69.03
64460;BME280;50828;53.756;21.140;2023-04-02T10:28:48;99782.16;;;4.74;69.02
64460;BME280;50828;53.756;21.140;2023-04-02T10:34:01;99786.38;;;4.81;69.03
64460;BME280;50828;53.756;21.140;2023-04-02T10:39:13;99791.10;;;4.88;68.78
64460;BME280;50828;53.756;21.140;2023-04-02T10:44:38;99793.05;;;4.95;68.66
64460;BME280;50828;53.756;21.140;2023-04-02T10:49:52;99793.89;;;5.05;68.63
64460;BME280;50828;53.756;21.140;2023-04-02T10:55:06;99795.42;;;5.13;68.53
64460;BME280;50828;53.756;21.140;2023-04-02T11:00:23;99803.39;;;5.24;68.57
64460;BME280;50828;53.756;21.140;2023-04-02T11:05:38;99816.59;;;5.35;68.29
64460;BME280;50828;53.756;21.140;2023-04-02T11:10:50;99825.05;;;5.46;68.11
64460;BME280;50828;53.756;21.140;2023-04-02T11:15:59;99833.40;;;5.55;68.01
64460;BME280;50828;53.756;21.140;2023-04-02T11:21:16;99836.91;;;5.62;67.67
64460;BME280;50828;53.756;21.140;2023-04-02T11:26:41;99847.42;;;5.67;67.23
64460;BME280;50828;53.756;21.140;2023-04-02T11:37:38;99867.92;;;5.80;67.05
64460;BME280;50828;53.756;21.140;2023-04-02T11:42:47;99879.79;;;5.88;66.82
64460;BME280;50828;53.756;21.140;2023-04-02T11:48:29;99883.69;;;5.92;66.62
64460;BME280;50828;53.756;21.140;2023-04-02T11:53:36;99891.14;;;5.96;66.66
64460;BME280;50828;53.756;21.140;2023-04-02T11:58:55;99895.92;;;6.01;66.36
64460;BME280;50828;53.756;21.140;2023-04-02T12:09:50;99915.10;;;6.11;66.25
64460;BME280;50828;53.756;21.140;2023-04-02T12:14:59;99919.73;;;6.14;66.25
64460;BME280;50828;53.756;21.140;2023-04-02T12:20:30;99923.27;;;6.19;65.93
64460;BME280;50828;53.756;21.140;2023-04-02T12:25:38;99934.35;;;6.24;65.68
64460;BME280;50828;53.756;21.140;2023-04-02T12:30:46;99945.25;;;6.28;65.65
64460;BME280;50828;53.756;21.140;2023-04-02T12:35:58;99948.50;;;6.31;65.61
64460;BME280;50828;53.756;21.140;2023-04-02T12:41:17;99952.27;;;6.34;65.66
64460;BME280;50828;53.756;21.140;2023-04-02T12:46:26;99957.06;;;6.38;65.42
64460;BME280;50828;53.756;21.140;2023-04-02T12:51:34;99966.07;;;6.42;65.21
64460;BME280;50828;53.756;21.140;2023-04-02T12:56:42;99971.92;;;6.46;65.08
64460;BME280;50828;53.756;21.140;2023-04-02T13:01:58;99975.70;;;6.48;64.65
64460;BME280;50828;53.756;21.140;2023-04-02T13:07:12;99976.17;;;6.51;64.75
64460;BME280;50828;53.756;21.140;2023-04-02T13:12:30;99975.36;;;6.55;64.54
64460;BME280;50828;53.756;21.140;2023-04-02T13:17:40;99977.85;;;6.60;64.49
64460;BME280;50828;53.756;21.140;2023-04-02T13:22:48;99984.79;;;6.62;64.09
64460;BME280;50828;53.756;21.140;2023-04-02T13:27:55;99989.11;;;6.64;63.10
64460;BME280;50828;53.756;21.140;2023-04-02T13:33:03;99997.92;;;6.62;62.24
64460;BME280;50828;53.756;21.140;2023-04-02T13:38:11;99999.60;;;6.58;62.29
64460;BME280;50828;53.756;21.140;2023-04-02T13:43:20;100006.70;;;6.54;61.91
64460;BME280;50828;53.756;21.140;2023-04-02T13:48:27;100011.67;;;6.51;61.33
64460;BME280;50828;53.756;21.140;2023-04-02T13:53:35;100012.44;;;6.49;61.17
64460;BME280;50828;53.756;21.140;2023-04-02T13:58:42;100017.21;;;6.47;60.50
64460;BME280;50828;53.756;21.140;2023-04-02T14:03:51;100019.95;;;6.49;60.71
64460;BME280;50828;53.756;21.140;2023-04-02T14:09:02;100027.79;;;6.51;60.32
64460;BME280;50828;53.756;21.140;2023-04-02T14:14:27;100030.02;;;6.53;59.83
64460;BME280;50828;53.756;21.140;2023-04-02T14:19:57;100038.56;;;6.54;59.81
64460;BME280;50828;53.756;21.140;2023-04-02T14:25:15;100042.39;;;6.54;59.41
64460;BME280;50828;53.756;21.140;2023-04-02T14:30:30;100046.02;;;6.56;59.26
64460;BME280;50828;53.756;21.140;2023-04-02T14:35:46;100054.91;;;6.57;59.35
64460;BME280;50828;53.756;21.140;2023-04-02T14:41:01;100050.72;;;6.57;59.35
64460;BME280;50828;53.756;21.140;2023-04-02T14:46:10;100052.15;;;6.63;58.98
64460;BME280;50828;53.756;21.140;2023-04-02T14:51:23;100049.80;;;6.66;59.30
64460;BME280;50828;53.756;21.140;2023-04-02T14:56:37;100055.60;;;6.71;59.50
64460;BME280;50828;53.756;21.140;2023-04-02T15:01:47;100057.63;;;6.75;59.27
64460;BME280;50828;53.756;21.140;2023-04-02T15:07:00;100065.54;;;6.80;59.20
64460;BME280;50828;53.756;21.140;2023-04-02T15:12:11;100072.59;;;6.86;58.90
64460;BME280;50828;53.756;21.140;2023-04-02T15:17:20;100077.99;;;6.86;58.37
64460;BME280;50828;53.756;21.140;2023-04-02T15:22:32;100078.36;;;6.85;58.16
64460;BME280;50828;53.756;21.140;2023-04-02T15:27:55;100084.41;;;6.88;57.47
64460;BME280;50828;53.756;21.140;2023-04-02T15:33:32;100087.05;;;6.89;57.12
64460;BME280;50828;53.756;21.140;2023-04-02T15:38:42;100091.61;;;6.88;56.56
64460;BME280;50828;53.756;21.140;2023-04-02T15:43:59;100097.08;;;6.86;56.25
64460;BME280;50828;53.756;21.140;2023-04-02T15:49:22;100103.96;;;6.84;56.10
64460;BME280;50828;53.756;21.140;2023-04-02T15:54:47;100116.11;;;6.81;55.73
64460;BME280;50828;53.756;21.140;2023-04-02T16:00:26;100127.39;;;6.77;55.52
64460;BME280;50828;53.756;21.140;2023-04-02T16:05:40;100142.05;;;6.73;55.09
64460;BME280;50828;53.756;21.140;2023-04-02T16:10:48;100149.39;;;6.66;55.04
64460;BME280;50828;53.756;21.140;2023-04-02T16:16:02;100161.56;;;6.61;55.19
64460;BME280;50828;53.756;21.140;2023-04-02T16:21:11;100171.45;;;6.56;54.85
64460;BME280;50828;53.756;21.140;2023-04-02T16:26:35;100175.27;;;6.51;55.01
64460;BME280;50828;53.756;21.140;2023-04-02T16:31:48;100177.12;;;6.46;54.61
64460;BME280;50828;53.756;21.140;2023-04-02T16:37:03;100173.20;;;6.33;54.83
64460;BME280;50828;53.756;21.140;2023-04-02T16:42:21;100189.46;;;6.34;54.67
64460;BME280;50828;53.756;21.140;2023-04-02T16:47:52;100200.75;;;6.30;54.81
64460;BME280;50828;53.756;21.140;2023-04-02T16:53:09;100196.27;;;6.18;54.77
64460;BME280;50828;53.756;21.140;2023-04-02T16:58:30;100211.98;;;6.19;54.68
64460;BME280;50828;53.756;21.140;2023-04-02T17:04:02;100219.28;;;6.13;54.46
64460;BME280;50828;53.756;21.140;2023-04-02T17:09:17;100229.84;;;6.10;54.22
64460;BME280;50828;53.756;21.140;2023-04-02T17:14:32;100235.35;;;6.05;54.07
64460;BME280;50828;53.756;21.140;2023-04-02T17:19:45;100247.31;;;6.01;54.03
64460;BME280;50828;53.756;21.140;2023-04-02T17:24:56;100251.59;;;5.96;54.33
64460;BME280;50828;53.756;21.140;2023-04-02T17:30:06;100265.45;;;5.92;53.86
64460;BME280;50828;53.756;21.140;2023-04-02T17:35:23;100272.16;;;5.88;53.87
64460;BME280;50828;53.756;21.140;2023-04-02T17:40:40;100277.88;;;5.82;54.05
64460;BME280;50828;53.756;21.140;2023-04-02T17:45:51;100292.13;;;5.77;53.95
64460;BME280;50828;53.756;21.140;2023-04-02T17:51:11;100306.73;;;5.71;53.92
64460;BME280;50828;53.756;21.140;2023-04-02T17:56:31;100308.59;;;5.64;53.75
64460;BME280;50828;53.756;21.140;2023-04-02T18:01:48;100317.91;;;5.61;53.65
64460;BME280;50828;53.756;21.140;2023-04-02T18:12:34;100336.48;;;5.47;53.17
64460;BME280;50828;53.756;21.140;2023-04-02T18:17:51;100345.87;;;5.38;53.33
64460;BME280;50828;53.756;21.140;2023-04-02T18:23:05;100354.05;;;5.28;53.24
64460;BME280;50828;53.756;21.140;2023-04-02T18:28:39;100363.44;;;5.19;52.88
64460;BME280;50828;53.756;21.140;2023-04-02T18:39:31;100377.33;;;4.99;52.21
64460;BME280;50828;53.756;21.140;2023-04-02T18:44:52;100388.95;;;4.91;52.17
64460;BME280;50828;53.756;21.140;2023-04-02T18:50:12;100398.84;;;4.80;52.00
64460;BME280;50828;53.756;21.140;2023-04-02T18:55:23;100409.96;;;4.70;51.87
64460;BME280;50828;53.756;21.140;2023-04-02T19:00:37;100417.91;;;4.61;52.26
64460;BME280;50828;53.756;21.140;2023-04-02T19:05:49;100427.25;;;4.51;52.17
64460;BME280;50828;53.756;21.140;2023-04-02T19:10:59;100435.38;;;4.41;52.06
64460;BME280;50828;53.756;21.140;2023-04-02T19:16:28;100442.80;;;4.32;52.11
64460;BME280;50828;53.756;21.140;2023-04-02T19:21:51;100446.54;;;4.22;51.66
64460;BME280;50828;53.756;21.140;2023-04-02T19:27:05;100450.98;;;4.13;51.74
64460;BME280;50828;53.756;21.140;2023-04-02T19:32:20;100451.58;;;4.03;51.72
64460;BME280;50828;53.756;21.140;2023-04-02T19:37:37;100455.31;;;3.95;51.24
64460;BME280;50828;53.756;21.140;2023-04-02T19:42:47;100462.35;;;3.85;51.56
64460;BME280;50828;53.756;21.140;2023-04-02T19:47:55;100468.50;;;3.78;51.14
64460;BME280;50828;53.756;21.140;2023-04-02T19:53:04;100472.91;;;3.68;50.97
64460;BME280;50828;53.756;21.140;2023-04-02T19:58:15;100475.75;;;3.61;51.25
64460;BME280;50828;53.756;21.140;2023-04-02T20:03:24;100479.45;;;3.52;51.06
64460;BME280;50828;53.756;21.140;2023-04-02T20:08:32;100480.55;;;3.42;51.34
64460;BME280;50828;53.756;21.140;2023-04-02T20:13:40;100485.64;;;3.35;51.25
64460;BME280;50828;53.756;21.140;2023-04-02T20:18:48;100493.84;;;3.27;51.52
64460;BME280;50828;53.756;21.140;2023-04-02T20:23:55;100502.57;;;3.20;51.52
64460;BME280;50828;53.756;21.140;2023-04-02T20:29:02;100519.31;;;3.12;51.59
64460;BME280;50828;53.756;21.140;2023-04-02T20:34:10;100524.91;;;3.04;51.35
64460;BME280;50828;53.756;21.140;2023-04-02T20:39:18;100530.67;;;2.97;51.38
64460;BME280;50828;53.756;21.140;2023-04-02T20:44:26;100527.55;;;2.88;51.49
64460;BME280;50828;53.756;21.140;2023-04-02T20:49:33;100538.52;;;2.81;51.74
64460;BME280;50828;53.756;21.140;2023-04-02T20:54:40;100537.33;;;2.72;51.54
64460;BME280;50828;53.756;21.140;2023-04-02T20:59:48;100544.12;;;2.67;51.77
64460;BME280;50828;53.756;21.140;2023-04-02T21:04:56;100552.13;;;2.61;51.58
64460;BME280;50828;53.756;21.140;2023-04-02T21:10:04;100560.12;;;2.54;51.57
64460;BME280;50828;53.756;21.140;2023-04-02T21:15:12;100565.69;;;2.47;51.71
64460;BME280;50828;53.756;21.140;2023-04-02T21:20:19;100569.49;;;2.38;51.73
64460;BME280;50828;53.756;21.140;2023-04-02T21:25:26;100563.23;;;2.23;52.01
64460;BME280;50828;53.756;21.140;2023-04-02T21:30:33;100580.27;;;2.25;52.14
64460;BME280;50828;53.756;21.140;2023-04-02T21:35:40;100583.73;;;2.17;52.02
64460;BME280;50828;53.756;21.140;2023-04-02T21:40:48;100586.33;;;2.11;52.16
64460;BME280;50828;53.756;21.140;2023-04-02T21:45:58;100587.01;;;2.06;52.24
64460;BME280;50828;53.756;21.140;2023-04-02T21:51:11;100590.81;;;1.99;52.25
64460;BME280;50828;53.756;21.140;2023-04-02T21:56:19;100592.71;;;1.94;52.31
64460;BME280;50828;53.756;21.140;2023-04-02T22:01:30;100594.61;;;1.88;52.46
64460;BME280;50828;53.756;21.140;2023-04-02T22:06:39;100593.90;;;1.81;52.56
64460;BME280;50828;53.756;21.140;2023-04-02T22:11:49;100601.52;;;1.76;52.69
64460;BME280;50828;53.756;21.140;2023-04-02T22:16:57;100608.80;;;1.70;52.73
64460;BME280;50828;53.756;21.140;2023-04-02T22:22:04;100610.32;;;1.65;52.89
64460;BME280;50828;53.756;21.140;2023-04-02T22:27:12;100615.19;;;1.60;52.89
64460;BME280;50828;53.756;21.140;2023-04-02T22:32:19;100619.31;;;1.55;52.74
64460;BME280;50828;53.756;21.140;2023-04-02T22:37:26;100623.63;;;1.50;52.71
64460;BME280;50828;53.756;21.140;2023-04-02T22:42:38;100622.55;;;1.43;52.77
64460;BME280;50828;53.756;21.140;2023-04-02T22:47:45;100629.81;;;1.39;53.02
64460;BME280;50828;53.756;21.140;2023-04-02T22:52:52;100631.72;;;1.34;53.11
64460;BME280;50828;53.756;21.140;2023-04-02T22:58:00;100634.27;;;1.27;53.24
64460;BME280;50828;53.756;21.140;2023-04-02T23:03:07;100637.87;;;1.20;53.23
64460;BME280;50828;53.756;21.140;2023-04-02T23:08:15;100640.97;;;1.16;53.50
64460;BME280;50828;53.756;21.140;2023-04-02T23:13:22;100647.16;;;1.11;53.67
64460;BME280;50828;53.756;21.140;2023-04-02T23:18:30;100653.75;;;1.06;53.76
64460;BME280;50828;53.756;21.140;2023-04-02T23:23:37;100653.70;;;1.01;53.90
64460;BME280;50828;53.756;21.140;2023-04-02T23:28:45;100655.38;;;0.95;53.94
64460;BME280;50828;53.756;21.140;2023-04-02T23:33:52;100659.35;;;0.92;54.12
64460;BME280;50828;53.756;21.140;2023-04-02T23:39:02;100664.00;;;0.87;54.35
64460;BME280;50828;53.756;21.140;2023-04-02T23:44:12;100666.20;;;0.82;54.27
64460;BME280;50828;53.756;21.140;2023-04-02T23:49:19;100666.69;;;0.78;54.62
64460;BME280;50828;53.756;21.140;2023-04-02T23:54:27;100670.80;;;0.72;54.76
64460;BME280;50828;53.756;21.140;2023-04-02T23:59:35;100675.45;;;0.68;54.98
